createdAt,value
2022-08-26T00:01:56.315Z,98420.16
2022-08-26T00:04:25.178Z,98419.13
2022-08-26T00:06:55.874Z,98423.88
2022-08-26T00:09:24.941Z,98418.44
2022-08-26T00:11:54.242Z,98414.28
2022-08-26T00:14:27.041Z,98421.13
2022-08-26T00:16:56.943Z,98418.69
2022-08-26T00:19:24.839Z,98416.81
2022-08-26T00:21:52.346Z,98419.16
2022-08-26T00:24:21.842Z,98421.22
2022-08-26T00:26:49.683Z,98421.91
2022-08-26T00:29:17.870Z,98424.09
2022-08-26T00:31:45.750Z,98420.41
2022-08-26T00:34:14.272Z,98421.69
2022-08-26T00:36:43.608Z,98426.06
2022-08-26T00:39:14.124Z,98429.53
2022-08-26T00:41:41.817Z,98426.41
2022-08-26T00:44:11.074Z,98422.94
2022-08-26T00:46:46.819Z,98418.63
2022-08-26T00:49:22.073Z,98420.81
2022-08-26T00:51:54.232Z,98423.56
2022-08-26T00:54:27.022Z,98420.81
2022-08-26T00:57:16.025Z,98417.03
2022-08-26T00:59:49.560Z,98424.13
2022-08-26T01:02:21.327Z,98421.59
2022-08-26T01:04:56.527Z,98419.63
2022-08-26T01:07:30.158Z,98427.09
2022-08-26T01:10:01.439Z,98422.06
2022-08-26T01:12:34.246Z,98425.84
2022-08-26T01:15:03.188Z,98434.47
2022-08-26T01:17:33.257Z,98432.41
2022-08-26T01:20:24.981Z,98437.19
2022-08-26T01:22:58.730Z,98438.75
2022-08-26T01:25:33.293Z,98439.44
2022-08-26T01:28:05.748Z,98433.91
2022-08-26T01:30:35.491Z,98430.09
2022-08-26T01:33:08.363Z,98426.53
2022-08-26T01:35:37.537Z,98430.94
2022-08-26T01:38:06.136Z,98426.94
2022-08-26T01:40:38.022Z,98429.81
2022-08-26T01:43:08.697Z,98421.34
2022-08-26T01:45:41.613Z,98425.63
2022-08-26T01:48:16.311Z,98422.97
2022-08-26T01:50:46.149Z,98421.75
2022-08-26T01:53:16.803Z,98427.84
2022-08-26T01:55:49.353Z,98426.78
2022-08-26T01:58:26.208Z,98429.88
2022-08-26T02:00:54.181Z,98426.75
2022-08-26T02:03:22.271Z,98429.56
2022-08-26T02:05:53.589Z,98432.13
2022-08-26T02:08:29.295Z,98436.19
2022-08-26T02:10:56.509Z,98432.72
2022-08-26T02:13:26.971Z,98434.00
2022-08-26T02:15:55.685Z,98433.22
2022-08-26T02:18:23.967Z,98429.94
2022-08-26T02:20:54.540Z,98433.94
2022-08-26T02:23:23.964Z,98437.59
2022-08-26T02:26:08.447Z,98434.28
2022-08-26T02:29:05.879Z,98436.06
2022-08-26T02:31:35.094Z,98441.00
2022-08-26T02:34:33.107Z,98444.59
2022-08-26T02:37:05.093Z,98434.53
2022-08-26T02:39:34.034Z,98439.00
2022-08-26T02:42:01.579Z,98439.28
2022-08-26T02:44:28.879Z,98429.53
2022-08-26T02:47:02.342Z,98435.91
2022-08-26T02:49:33.755Z,98437.50
2022-08-26T02:52:01.902Z,98430.72
2022-08-26T02:54:29.230Z,98435.94
2022-08-26T02:56:56.309Z,98433.31
2022-08-26T02:59:24.451Z,98434.47
2022-08-26T03:01:52.623Z,98437.34
2022-08-26T03:04:25.825Z,98437.06
2022-08-26T03:06:55.382Z,98434.78
2022-08-26T03:09:24.052Z,98437.63
2022-08-26T03:11:52.368Z,98432.47
2022-08-26T03:14:19.488Z,98431.03
2022-08-26T03:16:48.449Z,98431.16
2022-08-26T03:19:15.706Z,98422.41
2022-08-26T03:21:45.191Z,98418.97
2022-08-26T03:24:15.560Z,98419.38
2022-08-26T03:26:51.914Z,98421.81
2022-08-26T03:29:40.628Z,98424.13
2022-08-26T03:32:08.634Z,98423.31
2022-08-26T03:34:36.449Z,98427.59
2022-08-26T03:37:03.624Z,98420.41
2022-08-26T03:39:31.787Z,98422.41
2022-08-26T03:41:59.931Z,98417.50
2022-08-26T03:44:27.361Z,98422.44
2022-08-26T03:47:20.086Z,98423.56
2022-08-26T03:49:47.471Z,98431.94
2022-08-26T03:52:19.764Z,98426.16
2022-08-26T03:54:47.221Z,98427.34
2022-08-26T03:57:14.319Z,98433.38
2022-08-26T03:59:44.126Z,98432.81
2022-08-26T04:02:11.944Z,98438.00
2022-08-26T04:04:39.701Z,98435.81
2022-08-26T04:07:07.367Z,98431.09
2022-08-26T04:09:35.336Z,98438.28
2022-08-26T04:12:03.844Z,98436.22
2022-08-26T04:14:32.133Z,98435.66
2022-08-26T04:16:59.372Z,98435.91
2022-08-26T04:19:26.582Z,98436.50
2022-08-26T04:21:54.439Z,98432.56
2022-08-26T04:24:25.348Z,98429.25
2022-08-26T04:26:52.533Z,98428.09
2022-08-26T04:29:25.334Z,98432.69
2022-08-26T04:31:57.198Z,98426.78
2022-08-26T04:34:28.336Z,98422.91
2022-08-26T04:36:58.260Z,98427.84
2022-08-26T04:39:27.703Z,98423.81
2022-08-26T04:41:55.554Z,98426.72
2022-08-26T04:44:28.258Z,98435.03
2022-08-26T04:46:58.667Z,98423.94
2022-08-26T04:49:27.504Z,98429.81
2022-08-26T04:51:55.053Z,98430.44
2022-08-26T04:54:23.307Z,98428.28
2022-08-26T04:56:52.556Z,98433.00
2022-08-26T04:59:20.003Z,98433.88
2022-08-26T05:01:52.165Z,98435.66
2022-08-26T05:04:21.013Z,98436.50
2022-08-26T05:06:49.031Z,98443.13
2022-08-26T05:09:18.298Z,98445.28
2022-08-26T05:11:48.471Z,98436.94
2022-08-26T05:14:23.128Z,98440.00
2022-08-26T05:16:51.609Z,98439.38
2022-08-26T05:19:19.507Z,98440.50
2022-08-26T05:21:48.741Z,98447.97
2022-08-26T05:24:17.773Z,98445.69
2022-08-26T05:26:46.741Z,98449.78
2022-08-26T05:29:14.236Z,98447.78
2022-08-26T05:31:41.982Z,98450.34
2022-08-26T05:34:10.116Z,98448.06
2022-08-26T05:36:37.903Z,98448.66
2022-08-26T05:39:07.129Z,98450.78
2022-08-26T05:41:38.586Z,98455.53
2022-08-26T05:44:09.849Z,98455.38
2022-08-26T05:46:38.350Z,98452.34
2022-08-26T05:49:13.065Z,98453.06
2022-08-26T05:51:46.296Z,98459.69
2022-08-26T05:54:21.866Z,98448.06
2022-08-26T05:56:51.844Z,98462.63
2022-08-26T05:59:24.207Z,98465.22
2022-08-26T06:01:54.637Z,98463.91
2022-08-26T06:04:26.783Z,98469.06
2022-08-26T06:06:55.577Z,98467.34
2022-08-26T06:09:23.285Z,98469.63
2022-08-26T06:11:50.974Z,98471.63
2022-08-26T06:14:18.169Z,98479.84
2022-08-26T06:16:45.973Z,98470.28
2022-08-26T06:19:15.588Z,98477.59
2022-08-26T06:21:54.036Z,98470.50
2022-08-26T06:24:39.925Z,98470.50
2022-08-26T06:27:09.991Z,98471.66
2022-08-26T06:29:39.348Z,98474.41
2022-08-26T06:32:06.947Z,98470.97
2022-08-26T06:34:35.985Z,98464.25
2022-08-26T06:37:03.636Z,98475.97
2022-08-26T06:39:31.833Z,98475.31
2022-08-26T06:42:01.155Z,98472.66
2022-08-26T06:44:34.278Z,98479.53
2022-08-26T06:47:01.770Z,98482.91
2022-08-26T06:49:29.143Z,98471.44
2022-08-26T06:51:59.966Z,98474.44
2022-08-26T06:54:31.703Z,98474.88
2022-08-26T06:56:59.789Z,98475.72
2022-08-26T06:59:27.108Z,98478.81
2022-08-26T07:01:55.039Z,98478.59
2022-08-26T07:04:24.528Z,98481.16
2022-08-26T07:06:53.543Z,98480.88
2022-08-26T07:09:28.050Z,98479.72
2022-08-26T07:11:59.117Z,98479.50
2022-08-26T07:14:26.601Z,98482.28
2022-08-26T07:16:54.997Z,98480.56
2022-08-26T07:19:30.746Z,98484.84
2022-08-26T07:22:02.287Z,98483.16
2022-08-26T07:24:33.558Z,98478.31
2022-08-26T07:27:08.948Z,98485.44
2022-08-26T07:29:37.920Z,98489.16
2022-08-26T07:32:06.518Z,98492.72
2022-08-26T07:34:33.975Z,98483.19
2022-08-26T07:37:01.260Z,98487.56
2022-08-26T07:39:31.613Z,98484.72
2022-08-26T07:42:07.231Z,98489.72
2022-08-26T07:44:37.594Z,98492.16
2022-08-26T07:47:24.254Z,98494.94
2022-08-26T07:49:56.185Z,98488.72
2022-08-26T07:52:27.218Z,98486.25
2022-08-26T07:54:59.549Z,98494.47
2022-08-26T07:57:28.909Z,98486.09
2022-08-26T07:59:57.568Z,98490.34
2022-08-26T08:02:26.726Z,98484.56
2022-08-26T08:04:55.198Z,98482.00
2022-08-26T08:07:25.834Z,98491.41
2022-08-26T08:10:14.581Z,98480.16
2022-08-26T08:12:43.222Z,98485.34
2022-08-26T08:15:13.941Z,98489.88
2022-08-26T08:17:43.501Z,98486.25
2022-08-26T08:20:13.120Z,98485.94
2022-08-26T08:22:45.211Z,98483.25
2022-08-26T08:25:14.704Z,98484.50
2022-08-26T08:27:45.194Z,98488.81
2022-08-26T08:30:14.169Z,98483.75
2022-08-26T08:32:43.503Z,98482.81
2022-08-26T08:35:13.817Z,98479.91
2022-08-26T08:37:41.770Z,98481.81
2022-08-26T08:40:17.189Z,98474.81
2022-08-26T08:42:58.594Z,98479.69
2022-08-26T08:45:35.918Z,98469.91
2022-08-26T08:48:27.895Z,98473.91
2022-08-26T08:51:21.796Z,98468.00
2022-08-26T08:53:54.939Z,98480.34
2022-08-26T08:56:43.149Z,98471.28
2022-08-26T08:59:20.877Z,98469.25
2022-08-26T09:02:14.865Z,98465.34
2022-08-26T09:05:17.275Z,98460.03
2022-08-26T09:08:11.381Z,98458.19
2022-08-26T09:10:41.333Z,98454.34
2022-08-26T09:13:25.130Z,98455.31
2022-08-26T09:16:27.842Z,98456.78
2022-08-26T09:19:04.953Z,98453.09
2022-08-26T09:21:33.306Z,98448.59
2022-08-26T09:24:00.791Z,98449.81
2022-08-26T09:26:45.845Z,98441.78
2022-08-26T09:29:42.365Z,98441.13
2022-08-26T09:32:19.331Z,98435.28
2022-08-26T09:35:01.244Z,98437.50
2022-08-26T09:37:39.812Z,98438.06
2022-08-26T09:40:16.539Z,98427.53
2022-08-26T09:42:44.958Z,98423.09
2022-08-26T09:45:28.295Z,98426.50
2022-08-26T09:47:57.019Z,98422.84
2022-08-26T09:50:41.089Z,98420.31
2022-08-26T09:53:28.576Z,98409.13
2022-08-26T09:56:34.768Z,98397.59
2022-08-26T09:59:03.133Z,98393.13
2022-08-26T10:01:42.359Z,98381.97
2022-08-26T10:04:26.594Z,98387.34
2022-08-26T10:07:09.802Z,98371.94
2022-08-26T10:09:43.047Z,98375.75
2022-08-26T10:12:20.498Z,98381.75
2022-08-26T10:15:02.023Z,98375.34
2022-08-26T10:17:36.663Z,98379.19
2022-08-26T10:20:23.379Z,98367.13
2022-08-26T10:23:18.822Z,98360.38
2022-08-26T10:25:59.210Z,98353.91
2022-08-26T10:28:42.051Z,98351.28
2022-08-26T10:31:28.237Z,98358.44
2022-08-26T10:34:00.017Z,98348.56
2022-08-26T10:40:01.655Z,98347.72
2022-08-26T10:43:08.516Z,98354.66
2022-08-26T10:45:48.031Z,98348.97
2022-08-26T10:48:35.595Z,98344.91
2022-08-26T10:51:04.228Z,98336.69
2022-08-26T10:53:42.521Z,98335.88
2022-08-26T10:56:49.615Z,98337.00
2022-08-26T10:59:56.010Z,98327.25
2022-08-26T11:02:48.220Z,98322.84
2022-08-26T11:05:20.271Z,98319.13
2022-08-26T11:07:54.822Z,98320.53
2022-08-26T11:10:22.875Z,98309.97
2022-08-26T11:13:06.766Z,98297.81
2022-08-26T11:15:40.012Z,98302.06
2022-08-26T11:18:10.938Z,98298.25
2022-08-26T11:20:45.994Z,98300.88
2022-08-26T11:23:23.411Z,98310.63
2022-08-26T11:26:09.358Z,98318.00
2022-08-26T11:28:49.856Z,98310.41
2022-08-26T11:31:26.688Z,98310.78
2022-08-26T11:33:59.483Z,98311.38
2022-08-26T11:36:45.397Z,98315.59
2022-08-26T11:39:30.604Z,98306.59
2022-08-26T11:42:55.635Z,98307.81
2022-08-26T11:46:19.481Z,98309.00
2022-08-26T11:49:43.473Z,98314.22
2022-08-26T11:52:25.435Z,98317.44
2022-08-26T11:55:49.762Z,98313.44
2022-08-26T11:58:17.404Z,98319.84
2022-08-26T12:01:42.048Z,98321.91
2022-08-26T12:04:17.858Z,98315.63
2022-08-26T12:07:42.698Z,98320.91
2022-08-26T12:10:11.155Z,98324.41
2022-08-26T12:13:35.794Z,98319.88
2022-08-26T12:16:06.153Z,98320.97
2022-08-26T12:19:32.998Z,98321.44
2022-08-26T12:22:56.857Z,98315.47
2022-08-26T12:25:25.247Z,98313.69
2022-08-26T12:28:49.011Z,98323.34
2022-08-26T12:31:42.668Z,98313.25
2022-08-26T12:34:18.039Z,98314.16
2022-08-26T12:37:42.865Z,98303.19
2022-08-26T12:40:30.269Z,98299.97
2022-08-26T12:43:02.128Z,98303.69
2022-08-26T12:45:43.812Z,98288.91
2022-08-26T12:48:29.418Z,98290.84
2022-08-26T12:50:58.121Z,98291.72
2022-08-26T12:53:29.897Z,98277.94
2022-08-26T12:56:04.762Z,98268.41
2022-08-26T12:58:35.022Z,98270.78
2022-08-26T13:01:05.979Z,98276.31
2022-08-26T13:03:45.542Z,98275.91
2022-08-26T13:06:22.242Z,98270.81
2022-08-26T13:09:18.633Z,98273.44
2022-08-26T13:11:45.730Z,98259.06
2022-08-26T13:14:21.190Z,98252.44
2022-08-26T13:16:52.747Z,98249.38
2022-08-26T13:19:23.808Z,98255.28
2022-08-26T13:21:55.341Z,98259.59
2022-08-26T13:24:31.586Z,98238.31
2022-08-26T13:26:59.340Z,98237.66
2022-08-26T13:29:26.672Z,98235.84
2022-08-26T13:31:54.252Z,98231.78
2022-08-26T13:34:23.301Z,98228.28
2022-08-26T13:36:54.068Z,98226.53
2022-08-26T13:39:22.773Z,98236.28
2022-08-26T13:41:50.089Z,98236.38
2022-08-26T13:44:17.905Z,98230.38
2022-08-26T13:49:18.072Z,98220.56
2022-08-26T13:51:45.690Z,98215.56
2022-08-26T13:54:13.134Z,98207.97
2022-08-26T13:56:40.472Z,98209.19
2022-08-26T13:59:07.614Z,98206.38
2022-08-26T14:01:36.047Z,98205.16
2022-08-26T14:04:03.730Z,98210.78
2022-08-26T14:06:31.535Z,98206.50
2022-08-26T14:08:58.763Z,98205.22
2022-08-26T14:11:26.901Z,98202.44
2022-08-26T14:13:54.027Z,98193.19
2022-08-26T14:16:26.375Z,98192.97
2022-08-26T14:18:54.018Z,98193.28
2022-08-26T14:21:22.073Z,98189.47
2022-08-26T14:23:49.273Z,98189.63
2022-08-26T14:26:29.164Z,98189.88
2022-08-26T14:28:59.410Z,98197.03
2022-08-26T14:31:29.419Z,98195.22
2022-08-26T14:34:01.555Z,98196.16
2022-08-26T14:36:28.993Z,98201.16
2022-08-26T14:39:00.748Z,98207.41
2022-08-26T14:41:30.456Z,98209.38
2022-08-26T14:44:06.162Z,98207.69
2022-08-26T14:46:42.809Z,98216.06
2022-08-26T14:49:10.860Z,98218.56
2022-08-26T14:51:40.942Z,98217.31
2022-08-26T14:54:13.448Z,98202.09
2022-08-26T14:56:52.019Z,98192.31
2022-08-26T14:59:30.730Z,98194.31
2022-08-26T15:01:59.452Z,98191.16
2022-08-26T15:04:27.238Z,98184.81
2022-08-26T15:06:57.633Z,98187.25
2022-08-26T15:09:26.917Z,98187.94
2022-08-26T15:11:54.108Z,98197.53
2022-08-26T15:14:23.102Z,98199.03
2022-08-26T15:16:54.368Z,98194.16
2022-08-26T15:19:23.255Z,98205.69
2022-08-26T15:21:51.780Z,98211.34
2022-08-26T15:24:22.720Z,98218.88
2022-08-26T15:26:50.889Z,98214.69
2022-08-26T15:29:18.667Z,98215.25
2022-08-26T15:31:46.242Z,98219.91
2022-08-26T15:34:16.819Z,98225.84
2022-08-26T15:36:46.992Z,98212.28
2022-08-26T15:39:17.051Z,98215.44
2022-08-26T15:41:44.651Z,98216.75
2022-08-26T15:44:13.978Z,98210.19
2022-08-26T15:46:41.989Z,98214.22
2022-08-26T15:49:09.574Z,98208.47
2022-08-26T15:51:46.946Z,98198.59
2022-08-26T15:54:17.263Z,98191.13
2022-08-26T15:56:47.908Z,98194.75
2022-08-26T15:59:16.005Z,98191.59
2022-08-26T16:01:43.672Z,98197.16
2022-08-26T16:04:11.425Z,98197.16
2022-08-26T16:06:40.824Z,98206.09
2022-08-26T16:09:08.489Z,98222.38
2022-08-26T16:11:36.112Z,98239.09
2022-08-26T16:14:04.620Z,98242.25
2022-08-26T16:16:32.170Z,98253.13
2022-08-26T16:19:01.278Z,98258.38
2022-08-26T16:21:31.187Z,98268.41
2022-08-26T16:23:59.018Z,98287.84
2022-08-26T16:26:32.792Z,98294.03
2022-08-26T16:29:10.327Z,98293.47
2022-08-26T16:31:38.327Z,98295.28
2022-08-26T16:34:07.764Z,98293.31
2022-08-26T16:36:37.845Z,98318.09
2022-08-26T16:39:07.137Z,98321.59
2022-08-26T16:41:34.972Z,98325.97
2022-08-26T16:44:03.158Z,98310.31
2022-08-26T16:46:30.475Z,98318.88
2022-08-26T16:48:59.228Z,98324.09
2022-08-26T16:51:28.572Z,98338.91
2022-08-26T16:53:57.700Z,98329.41
2022-08-26T16:56:33.901Z,98319.56
2022-08-26T16:59:07.985Z,98318.41
2022-08-26T17:01:35.243Z,98310.91
2022-08-26T17:04:02.622Z,98302.91
2022-08-26T17:06:29.794Z,98307.38
2022-08-26T17:08:56.897Z,98308.00
2022-08-26T17:11:24.088Z,98293.88
2022-08-26T17:13:51.515Z,98296.13
2022-08-26T17:16:20.396Z,98306.19
2022-08-26T17:18:48.436Z,98296.19
2022-08-26T17:21:16.029Z,98312.31
2022-08-26T17:23:43.859Z,98312.31
2022-08-26T17:26:12.399Z,98311.13
2022-08-26T17:28:40.677Z,98299.59
2022-08-26T17:31:10.697Z,98310.53
2022-08-26T17:33:39.219Z,98305.94
2022-08-26T17:36:08.972Z,98302.91
2022-08-26T17:38:38.040Z,98313.66
2022-08-26T17:41:10.984Z,98315.25
2022-08-26T17:43:39.243Z,98324.25
2022-08-26T17:46:09.777Z,98314.72
2022-08-26T17:48:39.227Z,98318.00
2022-08-26T17:51:16.929Z,98316.53
2022-08-26T17:53:44.923Z,98322.28
2022-08-26T17:56:15.119Z,98322.72
2022-08-26T17:58:48.046Z,98325.22
2022-08-26T18:01:21.878Z,98327.47
2022-08-26T18:03:49.866Z,98324.22
2022-08-26T18:06:17.120Z,98340.63
2022-08-26T18:08:44.898Z,98345.81
2022-08-26T18:11:18.020Z,98346.09
2022-08-26T18:13:47.435Z,98355.31
2022-08-26T18:16:17.215Z,98370.28
2022-08-26T18:18:44.880Z,98375.03
2022-08-26T18:21:19.476Z,98380.06
2022-08-26T18:23:47.820Z,98375.00
2022-08-26T18:26:27.800Z,98392.31
2022-08-26T18:28:55.466Z,98398.63
2022-08-26T18:31:23.424Z,98407.69
2022-08-26T18:33:50.781Z,98425.41
2022-08-26T18:36:26.760Z,98461.56
2022-08-26T18:38:54.552Z,98491.41
2022-08-26T18:41:24.844Z,98495.59
2022-08-26T18:43:53.340Z,98505.97
2022-08-26T18:46:23.036Z,98498.97
2022-08-26T18:48:51.412Z,98511.06
2022-08-26T18:51:25.218Z,98508.56
2022-08-26T18:53:52.829Z,98506.25
2022-08-26T18:56:20.287Z,98498.47
2022-08-26T18:58:48.669Z,98500.94
2022-08-26T19:01:18.088Z,98489.25
2022-08-26T19:03:46.568Z,98481.19
2022-08-26T19:06:17.526Z,98487.28
2022-08-26T19:08:45.301Z,98477.47
2022-08-26T19:11:31.852Z,98473.44
2022-08-26T19:14:07.984Z,98484.66
2022-08-26T19:16:36.623Z,98486.38
2022-08-26T19:19:03.984Z,98479.16
2022-08-26T19:21:33.399Z,98469.09
2022-08-26T19:24:03.734Z,98473.13
2022-08-26T19:26:31.865Z,98478.31
2022-08-26T19:29:00.254Z,98478.44
2022-08-26T19:31:28.151Z,98476.31
2022-08-26T19:33:56.643Z,98483.19
2022-08-26T19:36:25.969Z,98482.31
2022-08-26T19:38:54.015Z,98483.75
2022-08-26T19:41:36.827Z,98491.41
2022-08-26T19:44:13.160Z,98484.97
2022-08-26T19:46:40.771Z,98493.59
2022-08-26T19:49:07.875Z,98489.00
2022-08-26T19:51:36.554Z,98485.50
2022-08-26T19:54:04.787Z,98495.03
2022-08-26T19:56:32.012Z,98493.72
2022-08-26T19:58:59.349Z,98495.91
2022-08-26T20:01:26.758Z,98492.41
2022-08-26T20:06:21.222Z,98505.69
2022-08-26T20:08:50.788Z,98506.84
2022-08-26T20:11:19.559Z,98497.63
2022-08-26T20:13:48.022Z,98497.19
2022-08-26T20:16:16.286Z,98499.34
2022-08-26T20:19:04.463Z,98493.72
2022-08-26T20:21:38.087Z,98501.50
2022-08-26T20:24:14.002Z,98499.78
2022-08-26T20:26:43.471Z,98503.25
2022-08-26T20:29:17.770Z,98499.78
2022-08-26T20:31:47.004Z,98490.28
2022-08-26T20:34:18.386Z,98493.03
2022-08-26T20:36:48.128Z,98490.72
2022-08-26T20:39:20.999Z,98493.03
2022-08-26T20:41:48.937Z,98494.91
2022-08-26T20:44:17.560Z,98504.25
2022-08-26T20:46:45.342Z,98496.34
2022-08-26T20:49:13.336Z,98503.53
2022-08-26T20:51:45.500Z,98494.16
2022-08-26T20:54:13.129Z,98496.88
2022-08-26T20:56:40.329Z,98497.31
2022-08-26T20:59:08.402Z,98493.88
2022-08-26T21:01:42.318Z,98492.84
2022-08-26T21:04:18.764Z,98497.03
2022-08-26T21:06:52.087Z,98505.53
2022-08-26T21:09:22.878Z,98490.13
2022-08-26T21:11:50.684Z,98497.63
2022-08-26T21:14:20.448Z,98501.06
2022-08-26T21:16:47.760Z,98504.25
2022-08-26T21:19:20.190Z,98498.22
2022-08-26T21:21:49.680Z,98510.72
2022-08-26T21:24:17.641Z,98498.22
2022-08-26T21:26:45.810Z,98505.09
2022-08-26T21:29:13.747Z,98507.72
2022-08-26T21:31:45.766Z,98500.50
2022-08-26T21:34:16.106Z,98500.78
2022-08-26T21:36:44.416Z,98496.44
2022-08-26T21:39:14.965Z,98502.69
2022-08-26T21:41:44.229Z,98507.41
2022-08-26T21:44:12.836Z,98503.53
2022-08-26T21:46:40.956Z,98503.69
2022-08-26T21:49:12.268Z,98510.03
2022-08-26T21:51:45.470Z,98512.31
2022-08-26T21:54:14.258Z,98517.91
2022-08-26T21:56:46.018Z,98520.66
2022-08-26T21:59:17.124Z,98520.66
2022-08-26T22:01:44.383Z,98508.13
2022-08-26T22:04:11.907Z,98513.47
2022-08-26T22:06:46.548Z,98506.84
2022-08-26T22:09:17.818Z,98512.59
2022-08-26T22:11:46.283Z,98512.34
2022-08-26T22:14:14.856Z,98515.50
2022-08-26T22:16:42.152Z,98513.72
2022-08-26T22:19:20.031Z,98513.16
2022-08-26T22:21:50.019Z,98506.81
2022-08-26T22:24:20.596Z,98505.41
2022-08-26T22:26:49.674Z,98510.44
2022-08-26T22:29:18.761Z,98511.97
2022-08-26T22:31:46.270Z,98512.84
2022-08-26T22:34:17.130Z,98515.72
2022-08-26T22:36:48.283Z,98522.66
2022-08-26T22:39:20.526Z,98522.66
2022-08-26T22:41:48.818Z,98521.44
2022-08-26T22:44:18.462Z,98532.31
2022-08-26T22:46:46.985Z,98537.38
2022-08-26T22:49:19.515Z,98546.59
2022-08-26T22:51:46.901Z,98549.78
2022-08-26T22:54:15.604Z,98541.09
2022-08-26T22:56:45.001Z,98548.91
2022-08-26T22:59:12.825Z,98549.78
2022-08-26T23:01:44.048Z,98552.78
2022-08-26T23:04:11.871Z,98551.47
2022-08-26T23:06:43.197Z,98554.75
2022-08-26T23:09:11.157Z,98555.81
2022-08-26T23:11:42.173Z,98553.78
2022-08-26T23:14:09.871Z,98552.16
2022-08-26T23:16:41.605Z,98548.50
2022-08-26T23:19:13.691Z,98547.91
2022-08-26T23:21:41.249Z,98533.31
2022-08-26T23:24:09.897Z,98542.00
2022-08-26T23:26:39.169Z,98529.59
2022-08-26T23:29:09.125Z,98539.25
2022-08-26T23:31:39.600Z,98530.78
2022-08-26T23:34:25.713Z,98536.22
2022-08-26T23:36:53.219Z,98530.13
2022-08-26T23:39:21.546Z,98538.25
2022-08-26T23:41:48.836Z,98525.28
2022-08-26T23:44:16.658Z,98531.06
2022-08-26T23:46:44.036Z,98528.41
2022-08-26T23:49:11.634Z,98529.41
2022-08-26T23:52:03.506Z,98536.16
2022-08-26T23:54:33.086Z,98536.91
2022-08-26T23:57:00.505Z,98528.78
2022-08-26T23:59:27.772Z,98529.19
